CYGL

La Grande Rivière Airport

La Grande Rivière, Quebec, Canada
METAR CYGL 180627Z 28020KT 7SM -SN OVC027 M19/M22 A2962 RMK SC8 SLP055
Observed Flight Rules
Feb-18 @ 06:27 UTC (49 minutes ago) Marginal Visual Flight Rules
Wind Visibility Clouds Conditions
280° at 20 knots 7 miles
  • Overcast at 2,700' AGL
  • Light Snow
Temperatures Readings
Current -19°C / -2°F
Dewpoint -22°C / -8°F
Humidity 77%
Altimeter 29.62" Hg
Pressure 1005.5 hPa
Elevation 195
METAR CYGL 180627Z 28020KT 7SM -SN OVC027 M19/M22 A2962 RMK SC8 SLP055
Observed Flight Rules
Feb-18 @ 06:27 UTC
(49 minutes ago)
MVFR
Wind Visibility
280° at 20 knots 7 miles
Clouds
  • Overcast at 2,700' AGL
Conditions
  • Light Snow
Temperature Dewpoint
-19°C / -2°F -22°C / -8°F
Humidity Altimeter Pressure
77% 29.62" Hg 1005.5 hPa